sensor_id;sensor_type;location;lat;lon;timestamp;P1;durP1;ratioP1;P2;durP2;ratioP2
23743;SDS011;12052;53.478;10.182;2022-12-18T00:01:28;23.10;;;10.10;;
23743;SDS011;12052;53.478;10.182;2022-12-18T00:03:59;28.13;;;10.77;;
23743;SDS011;12052;53.478;10.182;2022-12-18T00:06:26;16.90;;;10.77;;
23743;SDS011;12052;53.478;10.182;2022-12-18T00:08:54;26.25;;;12.48;;
23743;SDS011;12052;53.478;10.182;2022-12-18T00:11:22;22.60;;;10.65;;
23743;SDS011;12052;53.478;10.182;2022-12-18T00:13:49;17.92;;;10.20;;
23743;SDS011;12052;53.478;10.182;2022-12-18T00:16:16;24.25;;;10.85;;
23743;SDS011;12052;53.478;10.182;2022-12-18T00:18:47;20.73;;;10.32;;
23743;SDS011;12052;53.478;10.182;2022-12-18T00:21:17;19.67;;;10.27;;
23743;SDS011;12052;53.478;10.182;2022-12-18T00:23:43;20.42;;;9.85;;
23743;SDS011;12052;53.478;10.182;2022-12-18T00:26:11;21.55;;;11.02;;
23743;SDS011;12052;53.478;10.182;2022-12-18T00:28:39;25.88;;;11.95;;
23743;SDS011;12052;53.478;10.182;2022-12-18T00:31:10;18.77;;;8.82;;
23743;SDS011;12052;53.478;10.182;2022-12-18T00:33:38;27.52;;;10.27;;
23743;SDS011;12052;53.478;10.182;2022-12-18T00:36:07;20.42;;;11.05;;
23743;SDS011;12052;53.478;10.182;2022-12-18T00:38:36;17.67;;;9.63;;
23743;SDS011;12052;53.478;10.182;2022-12-18T00:41:02;19.95;;;9.32;;
23743;SDS011;12052;53.478;10.182;2022-12-18T00:43:27;19.17;;;10.35;;
23743;SDS011;12052;53.478;10.182;2022-12-18T00:45:53;21.08;;;9.77;;
23743;SDS011;12052;53.478;10.182;2022-12-18T00:48:19;23.52;;;10.60;;
23743;SDS011;12052;53.478;10.182;2022-12-18T00:50:45;25.60;;;10.88;;
23743;SDS011;12052;53.478;10.182;2022-12-18T00:53:12;14.20;;;8.27;;
23743;SDS011;12052;53.478;10.182;2022-12-18T00:55:41;21.90;;;11.75;;
23743;SDS011;12052;53.478;10.182;2022-12-18T00:58:07;20.38;;;9.13;;
23743;SDS011;12052;53.478;10.182;2022-12-18T01:00:34;24.33;;;10.13;;
23743;SDS011;12052;53.478;10.182;2022-12-18T01:03:00;19.45;;;10.50;;
23743;SDS011;12052;53.478;10.182;2022-12-18T01:05:26;15.95;;;9.05;;
23743;SDS011;12052;53.478;10.182;2022-12-18T01:07:52;19.60;;;9.63;;
23743;SDS011;12052;53.478;10.182;2022-12-18T01:10:17;19.25;;;10.27;;
23743;SDS011;12052;53.478;10.182;2022-12-18T01:12:43;18.60;;;8.95;;
23743;SDS011;12052;53.478;10.182;2022-12-18T01:15:09;24.38;;;9.45;;
23743;SDS011;12052;53.478;10.182;2022-12-18T01:17:36;25.83;;;11.10;;
23743;SDS011;12052;53.478;10.182;2022-12-18T01:20:02;19.73;;;8.88;;
23743;SDS011;12052;53.478;10.182;2022-12-18T01:22:29;18.08;;;8.48;;
23743;SDS011;12052;53.478;10.182;2022-12-18T01:24:54;13.95;;;8.07;;
23743;SDS011;12052;53.478;10.182;2022-12-18T01:27:20;18.45;;;9.43;;
23743;SDS011;12052;53.478;10.182;2022-12-18T01:29:45;18.95;;;8.93;;
23743;SDS011;12052;53.478;10.182;2022-12-18T01:32:11;17.90;;;8.35;;
23743;SDS011;12052;53.478;10.182;2022-12-18T01:34:36;20.77;;;8.48;;
23743;SDS011;12052;53.478;10.182;2022-12-18T01:37:03;18.15;;;8.35;;
23743;SDS011;12052;53.478;10.182;2022-12-18T01:39:29;16.95;;;7.90;;
23743;SDS011;12052;53.478;10.182;2022-12-18T01:41:57;24.50;;;8.77;;
23743;SDS011;12052;53.478;10.182;2022-12-18T01:50:09;15.93;;;8.00;;
23743;SDS011;12052;53.478;10.182;2022-12-18T01:52:43;12.25;;;6.47;;
23743;SDS011;12052;53.478;10.182;2022-12-18T01:55:13;14.23;;;7.53;;
23743;SDS011;12052;53.478;10.182;2022-12-18T01:57:43;17.02;;;8.60;;
23743;SDS011;12052;53.478;10.182;2022-12-18T02:00:27;23.95;;;8.93;;
23743;SDS011;12052;53.478;10.182;2022-12-18T02:02:53;10.68;;;6.78;;
23743;SDS011;12052;53.478;10.182;2022-12-18T02:05:25;18.38;;;8.65;;
23743;SDS011;12052;53.478;10.182;2022-12-18T02:13:27;17.13;;;7.65;;
23743;SDS011;12052;53.478;10.182;2022-12-18T02:18:49;23.02;;;7.40;;
23743;SDS011;12052;53.478;10.182;2022-12-18T02:24:14;15.68;;;7.93;;
23743;SDS011;12052;53.478;10.182;2022-12-18T02:27:00;16.33;;;7.65;;
23743;SDS011;12052;53.478;10.182;2022-12-18T02:29:31;18.52;;;8.70;;
23743;SDS011;12052;53.478;10.182;2022-12-18T02:32:02;14.70;;;7.03;;
23743;SDS011;12052;53.478;10.182;2022-12-18T02:34:37;21.83;;;8.80;;
23743;SDS011;12052;53.478;10.182;2022-12-18T02:37:04;14.52;;;7.30;;
23743;SDS011;12052;53.478;10.182;2022-12-18T02:39:40;18.90;;;8.35;;
23743;SDS011;12052;53.478;10.182;2022-12-18T02:42:08;15.57;;;7.85;;
23743;SDS011;12052;53.478;10.182;2022-12-18T02:44:35;18.23;;;8.80;;
23743;SDS011;12052;53.478;10.182;2022-12-18T02:47:09;14.57;;;7.30;;
23743;SDS011;12052;53.478;10.182;2022-12-18T02:49:53;16.75;;;7.75;;
23743;SDS011;12052;53.478;10.182;2022-12-18T02:58:30;11.25;;;6.72;;
23743;SDS011;12052;53.478;10.182;2022-12-18T03:03:48;17.00;;;8.32;;
23743;SDS011;12052;53.478;10.182;2022-12-18T03:06:24;17.48;;;7.07;;
23743;SDS011;12052;53.478;10.182;2022-12-18T03:08:56;13.30;;;8.00;;
23743;SDS011;12052;53.478;10.182;2022-12-18T03:11:25;16.53;;;7.63;;
23743;SDS011;12052;53.478;10.182;2022-12-18T03:14:13;12.50;;;6.68;;
23743;SDS011;12052;53.478;10.182;2022-12-18T03:16:42;19.80;;;8.43;;
23743;SDS011;12052;53.478;10.182;2022-12-18T03:19:16;12.73;;;6.07;;
23743;SDS011;12052;53.478;10.182;2022-12-18T03:21:47;15.07;;;6.68;;
23743;SDS011;12052;53.478;10.182;2022-12-18T03:24:17;16.20;;;7.22;;
23743;SDS011;12052;53.478;10.182;2022-12-18T03:26:44;15.25;;;7.93;;
23743;SDS011;12052;53.478;10.182;2022-12-18T03:29:14;18.98;;;8.00;;
23743;SDS011;12052;53.478;10.182;2022-12-18T03:31:59;11.30;;;6.57;;
23743;SDS011;12052;53.478;10.182;2022-12-18T03:34:30;13.32;;;7.80;;
23743;SDS011;12052;53.478;10.182;2022-12-18T03:36:57;16.45;;;7.70;;
23743;SDS011;12052;53.478;10.182;2022-12-18T03:39:23;14.20;;;7.35;;
23743;SDS011;12052;53.478;10.182;2022-12-18T03:44:36;16.08;;;7.70;;
23743;SDS011;12052;53.478;10.182;2022-12-18T03:52:45;10.50;;;6.30;;
23743;SDS011;12052;53.478;10.182;2022-12-18T03:55:17;14.63;;;6.18;;
23743;SDS011;12052;53.478;10.182;2022-12-18T03:57:44;15.30;;;7.05;;
23743;SDS011;12052;53.478;10.182;2022-12-18T04:00:13;22.15;;;6.78;;
23743;SDS011;12052;53.478;10.182;2022-12-18T04:02:45;11.73;;;6.20;;
23743;SDS011;12052;53.478;10.182;2022-12-18T04:05:15;17.75;;;7.50;;
23743;SDS011;12052;53.478;10.182;2022-12-18T04:07:43;12.38;;;7.32;;
23743;SDS011;12052;53.478;10.182;2022-12-18T04:10:10;13.73;;;8.18;;
23743;SDS011;12052;53.478;10.182;2022-12-18T04:12:37;13.30;;;7.57;;
23743;SDS011;12052;53.478;10.182;2022-12-18T04:15:03;15.77;;;8.32;;
23743;SDS011;12052;53.478;10.182;2022-12-18T04:17:29;19.23;;;7.43;;
23743;SDS011;12052;53.478;10.182;2022-12-18T04:19:55;14.40;;;9.02;;
23743;SDS011;12052;53.478;10.182;2022-12-18T04:22:20;17.88;;;8.27;;
23743;SDS011;12052;53.478;10.182;2022-12-18T04:24:46;13.90;;;7.97;;
23743;SDS011;12052;53.478;10.182;2022-12-18T04:27:12;19.90;;;8.98;;
23743;SDS011;12052;53.478;10.182;2022-12-18T04:29:37;14.70;;;7.03;;
23743;SDS011;12052;53.478;10.182;2022-12-18T04:32:03;8.10;;;5.85;;
23743;SDS011;12052;53.478;10.182;2022-12-18T04:34:28;13.38;;;7.65;;
23743;SDS011;12052;53.478;10.182;2022-12-18T04:36:54;17.20;;;7.72;;
23743;SDS011;12052;53.478;10.182;2022-12-18T04:39:20;20.05;;;8.82;;
23743;SDS011;12052;53.478;10.182;2022-12-18T04:41:45;18.63;;;9.23;;
23743;SDS011;12052;53.478;10.182;2022-12-18T04:44:11;13.48;;;7.38;;
23743;SDS011;12052;53.478;10.182;2022-12-18T04:46:36;16.05;;;8.85;;
23743;SDS011;12052;53.478;10.182;2022-12-18T04:49:02;13.95;;;8.82;;
23743;SDS011;12052;53.478;10.182;2022-12-18T04:51:27;15.25;;;7.50;;
23743;SDS011;12052;53.478;10.182;2022-12-18T04:53:53;13.10;;;7.85;;
23743;SDS011;12052;53.478;10.182;2022-12-18T04:56:19;15.57;;;8.60;;
23743;SDS011;12052;53.478;10.182;2022-12-18T04:58:45;16.85;;;7.90;;
23743;SDS011;12052;53.478;10.182;2022-12-18T05:01:11;23.58;;;8.40;;
23743;SDS011;12052;53.478;10.182;2022-12-18T05:03:38;16.13;;;8.30;;
23743;SDS011;12052;53.478;10.182;2022-12-18T05:06:04;18.88;;;8.77;;
23743;SDS011;12052;53.478;10.182;2022-12-18T05:08:30;17.45;;;8.52;;
23743;SDS011;12052;53.478;10.182;2022-12-18T05:11:00;18.88;;;8.23;;
23743;SDS011;12052;53.478;10.182;2022-12-18T05:13:27;25.73;;;8.13;;
23743;SDS011;12052;53.478;10.182;2022-12-18T05:15:53;17.90;;;8.00;;
23743;SDS011;12052;53.478;10.182;2022-12-18T05:18:19;14.45;;;8.05;;
23743;SDS011;12052;53.478;10.182;2022-12-18T05:20:45;19.60;;;9.15;;
23743;SDS011;12052;53.478;10.182;2022-12-18T05:23:11;22.58;;;10.10;;
23743;SDS011;12052;53.478;10.182;2022-12-18T05:25:36;16.23;;;8.07;;
23743;SDS011;12052;53.478;10.182;2022-12-18T05:28:02;20.92;;;9.43;;
23743;SDS011;12052;53.478;10.182;2022-12-18T05:30:28;19.42;;;8.68;;
23743;SDS011;12052;53.478;10.182;2022-12-18T05:32:53;18.23;;;9.45;;
23743;SDS011;12052;53.478;10.182;2022-12-18T05:35:19;20.00;;;9.00;;
23743;SDS011;12052;53.478;10.182;2022-12-18T05:37:44;15.07;;;7.80;;
23743;SDS011;12052;53.478;10.182;2022-12-18T05:40:10;23.52;;;10.00;;
23743;SDS011;12052;53.478;10.182;2022-12-18T05:42:36;16.75;;;8.38;;
23743;SDS011;12052;53.478;10.182;2022-12-18T05:45:03;19.25;;;10.27;;
23743;SDS011;12052;53.478;10.182;2022-12-18T05:47:29;20.10;;;8.93;;
23743;SDS011;12052;53.478;10.182;2022-12-18T05:49:55;15.00;;;8.23;;
23743;SDS011;12052;53.478;10.182;2022-12-18T05:52:20;25.02;;;9.23;;
23743;SDS011;12052;53.478;10.182;2022-12-18T05:54:46;17.67;;;8.68;;
23743;SDS011;12052;53.478;10.182;2022-12-18T05:57:12;26.80;;;8.85;;
23743;SDS011;12052;53.478;10.182;2022-12-18T05:59:37;23.75;;;10.40;;
23743;SDS011;12052;53.478;10.182;2022-12-18T06:02:03;20.55;;;9.48;;
23743;SDS011;12052;53.478;10.182;2022-12-18T06:04:29;16.83;;;9.02;;
23743;SDS011;12052;53.478;10.182;2022-12-18T06:06:54;20.90;;;9.15;;
23743;SDS011;12052;53.478;10.182;2022-12-18T06:09:20;14.48;;;8.45;;
23743;SDS011;12052;53.478;10.182;2022-12-18T06:11:45;19.10;;;10.07;;
23743;SDS011;12052;53.478;10.182;2022-12-18T06:14:11;15.02;;;8.93;;
23743;SDS011;12052;53.478;10.182;2022-12-18T06:16:36;20.50;;;9.02;;
23743;SDS011;12052;53.478;10.182;2022-12-18T06:19:03;18.17;;;9.48;;
23743;SDS011;12052;53.478;10.182;2022-12-18T06:21:30;12.85;;;7.95;;
23743;SDS011;12052;53.478;10.182;2022-12-18T06:23:56;19.48;;;7.35;;
23743;SDS011;12052;53.478;10.182;2022-12-18T06:26:22;18.63;;;9.15;;
23743;SDS011;12052;53.478;10.182;2022-12-18T06:28:48;23.25;;;10.10;;
23743;SDS011;12052;53.478;10.182;2022-12-18T06:31:14;21.42;;;9.70;;
23743;SDS011;12052;53.478;10.182;2022-12-18T06:33:40;23.15;;;8.88;;
23743;SDS011;12052;53.478;10.182;2022-12-18T06:36:10;15.60;;;8.05;;
23743;SDS011;12052;53.478;10.182;2022-12-18T06:38:38;19.10;;;10.05;;
23743;SDS011;12052;53.478;10.182;2022-12-18T06:41:06;25.90;;;10.45;;
23743;SDS011;12052;53.478;10.182;2022-12-18T06:43:35;18.02;;;8.35;;
23743;SDS011;12052;53.478;10.182;2022-12-18T06:46:01;26.90;;;10.35;;
23743;SDS011;12052;53.478;10.182;2022-12-18T06:48:28;13.60;;;8.48;;
23743;SDS011;12052;53.478;10.182;2022-12-18T06:50:54;17.60;;;9.93;;
23743;SDS011;12052;53.478;10.182;2022-12-18T06:53:19;22.38;;;8.73;;
23743;SDS011;12052;53.478;10.182;2022-12-18T06:55:45;15.07;;;9.23;;
23743;SDS011;12052;53.478;10.182;2022-12-18T06:58:10;24.77;;;9.60;;
23743;SDS011;12052;53.478;10.182;2022-12-18T07:00:36;20.67;;;8.68;;
23743;SDS011;12052;53.478;10.182;2022-12-18T07:03:01;23.48;;;10.45;;
23743;SDS011;12052;53.478;10.182;2022-12-18T07:05:27;19.92;;;9.43;;
23743;SDS011;12052;53.478;10.182;2022-12-18T07:07:52;37.67;;;10.88;;
23743;SDS011;12052;53.478;10.182;2022-12-18T07:10:18;19.35;;;9.18;;
23743;SDS011;12052;53.478;10.182;2022-12-18T07:12:43;19.73;;;10.13;;
23743;SDS011;12052;53.478;10.182;2022-12-18T07:15:10;28.08;;;12.52;;
23743;SDS011;12052;53.478;10.182;2022-12-18T07:17:35;22.58;;;9.68;;
23743;SDS011;12052;53.478;10.182;2022-12-18T07:20:01;27.10;;;11.15;;
23743;SDS011;12052;53.478;10.182;2022-12-18T07:22:27;22.67;;;9.43;;
23743;SDS011;12052;53.478;10.182;2022-12-18T07:24:52;15.20;;;7.95;;
23743;SDS011;12052;53.478;10.182;2022-12-18T07:27:18;17.20;;;8.60;;
23743;SDS011;12052;53.478;10.182;2022-12-18T07:29:44;23.92;;;10.85;;
23743;SDS011;12052;53.478;10.182;2022-12-18T07:32:09;22.75;;;10.10;;
23743;SDS011;12052;53.478;10.182;2022-12-18T07:34:35;23.55;;;11.10;;
23743;SDS011;12052;53.478;10.182;2022-12-18T07:37:01;20.40;;;8.88;;
23743;SDS011;12052;53.478;10.182;2022-12-18T07:39:26;16.95;;;8.43;;
23743;SDS011;12052;53.478;10.182;2022-12-18T07:41:52;20.60;;;10.32;;
23743;SDS011;12052;53.478;10.182;2022-12-18T07:44:36;20.92;;;10.50;;
23743;SDS011;12052;53.478;10.182;2022-12-18T07:47:02;24.38;;;10.23;;
23743;SDS011;12052;53.478;10.182;2022-12-18T07:49:28;19.67;;;9.27;;
23743;SDS011;12052;53.478;10.182;2022-12-18T07:51:54;26.27;;;10.57;;
23743;SDS011;12052;53.478;10.182;2022-12-18T07:54:20;18.23;;;9.40;;
23743;SDS011;12052;53.478;10.182;2022-12-18T07:56:47;29.10;;;10.50;;
23743;SDS011;12052;53.478;10.182;2022-12-18T07:59:12;24.10;;;9.65;;
23743;SDS011;12052;53.478;10.182;2022-12-18T08:01:38;23.55;;;11.13;;
23743;SDS011;12052;53.478;10.182;2022-12-18T08:04:03;30.60;;;11.82;;
23743;SDS011;12052;53.478;10.182;2022-12-18T08:06:29;25.23;;;10.55;;
23743;SDS011;12052;53.478;10.182;2022-12-18T08:08:55;21.77;;;10.10;;
23743;SDS011;12052;53.478;10.182;2022-12-18T08:11:22;15.07;;;8.82;;
23743;SDS011;12052;53.478;10.182;2022-12-18T08:13:49;24.10;;;11.68;;
23743;SDS011;12052;53.478;10.182;2022-12-18T08:16:15;22.15;;;9.77;;
23743;SDS011;12052;53.478;10.182;2022-12-18T08:18:41;23.40;;;10.77;;
23743;SDS011;12052;53.478;10.182;2022-12-18T08:21:07;30.02;;;11.63;;
23743;SDS011;12052;53.478;10.182;2022-12-18T08:23:43;23.60;;;10.18;;
23743;SDS011;12052;53.478;10.182;2022-12-18T08:26:10;22.65;;;10.90;;
23743;SDS011;12052;53.478;10.182;2022-12-18T08:28:36;21.27;;;10.77;;
23743;SDS011;12052;53.478;10.182;2022-12-18T08:31:02;27.92;;;10.82;;
23743;SDS011;12052;53.478;10.182;2022-12-18T08:33:28;21.48;;;9.48;;
23743;SDS011;12052;53.478;10.182;2022-12-18T08:35:54;22.13;;;10.60;;
23743;SDS011;12052;53.478;10.182;2022-12-18T08:38:20;22.27;;;10.40;;
23743;SDS011;12052;53.478;10.182;2022-12-18T08:40:45;20.27;;;9.05;;
23743;SDS011;12052;53.478;10.182;2022-12-18T08:43:11;26.27;;;10.02;;
23743;SDS011;12052;53.478;10.182;2022-12-18T08:45:56;23.85;;;9.38;;
23743;SDS011;12052;53.478;10.182;2022-12-18T08:48:21;19.67;;;9.52;;
23743;SDS011;12052;53.478;10.182;2022-12-18T08:50:57;23.23;;;11.25;;
23743;SDS011;12052;53.478;10.182;2022-12-18T08:53:23;20.33;;;10.68;;
23743;SDS011;12052;53.478;10.182;2022-12-18T08:55:49;27.98;;;12.70;;
23743;SDS011;12052;53.478;10.182;2022-12-18T08:58:15;27.13;;;11.05;;
23743;SDS011;12052;53.478;10.182;2022-12-18T09:00:40;26.42;;;11.02;;
23743;SDS011;12052;53.478;10.182;2022-12-18T09:03:10;26.35;;;11.95;;
23743;SDS011;12052;53.478;10.182;2022-12-18T09:05:43;30.10;;;11.95;;
23743;SDS011;12052;53.478;10.182;2022-12-18T09:08:10;25.80;;;11.18;;
23743;SDS011;12052;53.478;10.182;2022-12-18T09:10:45;20.27;;;11.50;;
23743;SDS011;12052;53.478;10.182;2022-12-18T09:13:12;17.85;;;9.55;;
23743;SDS011;12052;53.478;10.182;2022-12-18T09:15:41;21.10;;;8.93;;
23743;SDS011;12052;53.478;10.182;2022-12-18T09:18:08;25.48;;;10.45;;
23743;SDS011;12052;53.478;10.182;2022-12-18T09:20:35;17.40;;;8.52;;
23743;SDS011;12052;53.478;10.182;2022-12-18T09:23:01;25.48;;;11.98;;
23743;SDS011;12052;53.478;10.182;2022-12-18T09:25:28;23.95;;;11.68;;
23743;SDS011;12052;53.478;10.182;2022-12-18T09:27:58;22.55;;;11.10;;
23743;SDS011;12052;53.478;10.182;2022-12-18T09:30:27;19.80;;;7.93;;
23743;SDS011;12052;53.478;10.182;2022-12-18T09:32:52;20.08;;;10.52;;
23743;SDS011;12052;53.478;10.182;2022-12-18T09:35:18;26.10;;;12.30;;
23743;SDS011;12052;53.478;10.182;2022-12-18T09:37:43;25.08;;;12.20;;
23743;SDS011;12052;53.478;10.182;2022-12-18T09:40:13;26.73;;;12.70;;
23743;SDS011;12052;53.478;10.182;2022-12-18T09:42:44;23.35;;;9.35;;
23743;SDS011;12052;53.478;10.182;2022-12-18T09:47:42;24.40;;;11.05;;
23743;SDS011;12052;53.478;10.182;2022-12-18T09:52:57;28.83;;;11.57;;
23743;SDS011;12052;53.478;10.182;2022-12-18T09:55:34;24.88;;;11.65;;
23743;SDS011;12052;53.478;10.182;2022-12-18T09:58:30;33.35;;;12.52;;
23743;SDS011;12052;53.478;10.182;2022-12-18T10:00:58;24.88;;;11.25;;
23743;SDS011;12052;53.478;10.182;2022-12-18T10:03:23;26.35;;;11.73;;
23743;SDS011;12052;53.478;10.182;2022-12-18T10:11:49;29.75;;;11.88;;
23743;SDS011;12052;53.478;10.182;2022-12-18T10:20:05;27.55;;;11.50;;
23743;SDS011;12052;53.478;10.182;2022-12-18T10:22:56;35.40;;;13.88;;
23743;SDS011;12052;53.478;10.182;2022-12-18T10:25:39;29.30;;;11.02;;
23743;SDS011;12052;53.478;10.182;2022-12-18T10:28:10;30.67;;;13.75;;
23743;SDS011;12052;53.478;10.182;2022-12-18T10:30:38;26.45;;;12.77;;
23743;SDS011;12052;53.478;10.182;2022-12-18T10:33:05;31.40;;;13.23;;
23743;SDS011;12052;53.478;10.182;2022-12-18T10:35:35;29.27;;;12.88;;
23743;SDS011;12052;53.478;10.182;2022-12-18T10:38:06;31.70;;;13.52;;
23743;SDS011;12052;53.478;10.182;2022-12-18T10:43:19;24.95;;;11.95;;
23743;SDS011;12052;53.478;10.182;2022-12-18T10:48:34;32.30;;;13.75;;
23743;SDS011;12052;53.478;10.182;2022-12-18T10:51:04;30.50;;;13.35;;
23743;SDS011;12052;53.478;10.182;2022-12-18T10:53:31;29.85;;;13.15;;
23743;SDS011;12052;53.478;10.182;2022-12-18T10:55:59;32.17;;;13.45;;
23743;SDS011;12052;53.478;10.182;2022-12-18T10:58:30;33.78;;;12.52;;
23743;SDS011;12052;53.478;10.182;2022-12-18T11:01:01;29.67;;;13.23;;
23743;SDS011;12052;53.478;10.182;2022-12-18T11:03:41;30.83;;;11.13;;
23743;SDS011;12052;53.478;10.182;2022-12-18T11:06:13;31.48;;;12.18;;
23743;SDS011;12052;53.478;10.182;2022-12-18T11:08:41;32.20;;;13.27;;
23743;SDS011;12052;53.478;10.182;2022-12-18T11:11:21;31.65;;;14.55;;
23743;SDS011;12052;53.478;10.182;2022-12-18T11:13:51;42.40;;;13.00;;
23743;SDS011;12052;53.478;10.182;2022-12-18T11:16:21;29.42;;;14.10;;
23743;SDS011;12052;53.478;10.182;2022-12-18T11:18:46;28.63;;;13.63;;
23743;SDS011;12052;53.478;10.182;2022-12-18T11:21:12;27.98;;;12.60;;
23743;SDS011;12052;53.478;10.182;2022-12-18T11:23:52;30.38;;;12.43;;
23743;SDS011;12052;53.478;10.182;2022-12-18T11:26:18;38.13;;;13.77;;
23743;SDS011;12052;53.478;10.182;2022-12-18T11:28:47;29.52;;;11.95;;
23743;SDS011;12052;53.478;10.182;2022-12-18T11:31:26;31.27;;;10.57;;
23743;SDS011;12052;53.478;10.182;2022-12-18T11:36:42;33.80;;;13.65;;
23743;SDS011;12052;53.478;10.182;2022-12-18T11:42:11;31.50;;;14.40;;
23743;SDS011;12052;53.478;10.182;2022-12-18T11:47:40;25.25;;;10.10;;
23743;SDS011;12052;53.478;10.182;2022-12-18T11:50:12;32.42;;;14.13;;
23743;SDS011;12052;53.478;10.182;2022-12-18T11:52:43;25.98;;;11.90;;
23743;SDS011;12052;53.478;10.182;2022-12-18T11:55:14;29.60;;;12.95;;
23743;SDS011;12052;53.478;10.182;2022-12-18T12:00:38;31.92;;;12.10;;
23743;SDS011;12052;53.478;10.182;2022-12-18T12:33:17;30.95;;;12.50;;
23743;SDS011;12052;53.478;10.182;2022-12-18T12:38:44;24.73;;;10.77;;
23743;SDS011;12052;53.478;10.182;2022-12-18T12:41:16;23.10;;;10.32;;
23743;SDS011;12052;53.478;10.182;2022-12-18T12:44:05;25.98;;;10.93;;
23743;SDS011;12052;53.478;10.182;2022-12-18T12:46:37;28.05;;;11.35;;
23743;SDS011;12052;53.478;10.182;2022-12-18T12:49:11;34.45;;;12.88;;
23743;SDS011;12052;53.478;10.182;2022-12-18T12:52:03;35.55;;;11.48;;
23743;SDS011;12052;53.478;10.182;2022-12-18T12:54:32;26.25;;;10.05;;
23743;SDS011;12052;53.478;10.182;2022-12-18T12:57:59;28.65;;;11.88;;
23743;SDS011;12052;53.478;10.182;2022-12-18T13:02:47;27.63;;;10.63;;
23743;SDS011;12052;53.478;10.182;2022-12-18T13:05:39;32.72;;;12.75;;
23743;SDS011;12052;53.478;10.182;2022-12-18T13:08:22;25.83;;;10.20;;
23743;SDS011;12052;53.478;10.182;2022-12-18T13:10:53;20.95;;;9.10;;
23743;SDS011;12052;53.478;10.182;2022-12-18T13:13:49;33.92;;;11.93;;
23743;SDS011;12052;53.478;10.182;2022-12-18T13:16:18;25.95;;;11.02;;
23743;SDS011;12052;53.478;10.182;2022-12-18T13:18:48;32.45;;;11.43;;
23743;SDS011;12052;53.478;10.182;2022-12-18T13:24:14;29.27;;;11.73;;
23743;SDS011;12052;53.478;10.182;2022-12-18T13:26:53;31.05;;;12.18;;
23743;SDS011;12052;53.478;10.182;2022-12-18T13:32:15;28.23;;;10.07;;
23743;SDS011;12052;53.478;10.182;2022-12-18T13:34:45;24.70;;;10.25;;
23743;SDS011;12052;53.478;10.182;2022-12-18T13:40:25;32.10;;;11.52;;
23743;SDS011;12052;53.478;10.182;2022-12-18T13:43:21;31.13;;;10.50;;
23743;SDS011;12052;53.478;10.182;2022-12-18T13:46:21;34.85;;;11.75;;
23743;SDS011;12052;53.478;10.182;2022-12-18T13:49:01;32.13;;;11.18;;
23743;SDS011;12052;53.478;10.182;2022-12-18T13:51:41;28.17;;;12.75;;
23743;SDS011;12052;53.478;10.182;2022-12-18T13:56:44;32.63;;;12.45;;
23743;SDS011;12052;53.478;10.182;2022-12-18T13:59:18;29.08;;;11.45;;
23743;SDS011;12052;53.478;10.182;2022-12-18T14:01:56;34.78;;;12.60;;
23743;SDS011;12052;53.478;10.182;2022-12-18T14:07:12;33.10;;;11.63;;
23743;SDS011;12052;53.478;10.182;2022-12-18T14:09:52;33.83;;;11.63;;
23743;SDS011;12052;53.478;10.182;2022-12-18T14:17:55;34.30;;;12.02;;
23743;SDS011;12052;53.478;10.182;2022-12-18T14:20:24;37.25;;;12.25;;
23743;SDS011;12052;53.478;10.182;2022-12-18T14:22:51;28.20;;;10.52;;
23743;SDS011;12052;53.478;10.182;2022-12-18T14:25:19;29.38;;;11.70;;
23743;SDS011;12052;53.478;10.182;2022-12-18T14:27:52;34.40;;;12.45;;
23743;SDS011;12052;53.478;10.182;2022-12-18T14:30:28;45.20;;;15.10;;
23743;SDS011;12052;53.478;10.182;2022-12-18T14:33:38;36.50;;;14.00;;
23743;SDS011;12052;53.478;10.182;2022-12-18T14:38:38;29.42;;;11.88;;
23743;SDS011;12052;53.478;10.182;2022-12-18T14:43:38;28.40;;;11.88;;
23743;SDS011;12052;53.478;10.182;2022-12-18T14:46:05;38.13;;;13.07;;
23743;SDS011;12052;53.478;10.182;2022-12-18T14:48:52;36.83;;;13.95;;
23743;SDS011;12052;53.478;10.182;2022-12-18T14:51:19;36.70;;;11.57;;
23743;SDS011;12052;53.478;10.182;2022-12-18T14:56:26;32.83;;;12.05;;
23743;SDS011;12052;53.478;10.182;2022-12-18T14:58:58;44.85;;;14.43;;
23743;SDS011;12052;53.478;10.182;2022-12-18T15:01:29;31.25;;;13.30;;
23743;SDS011;12052;53.478;10.182;2022-12-18T15:04:00;29.02;;;10.10;;
23743;SDS011;12052;53.478;10.182;2022-12-18T15:06:34;38.80;;;12.40;;
23743;SDS011;12052;53.478;10.182;2022-12-18T15:09:35;31.10;;;11.50;;
23743;SDS011;12052;53.478;10.182;2022-12-18T15:11:58;34.03;;;12.35;;
23743;SDS011;12052;53.478;10.182;2022-12-18T15:17:05;38.47;;;12.65;;
23743;SDS011;12052;53.478;10.182;2022-12-18T15:19:41;27.95;;;11.40;;
23743;SDS011;12052;53.478;10.182;2022-12-18T15:25:03;36.42;;;13.75;;
23743;SDS011;12052;53.478;10.182;2022-12-18T15:28:22;40.50;;;15.65;;
23743;SDS011;12052;53.478;10.182;2022-12-18T15:33:27;31.20;;;10.98;;
23743;SDS011;12052;53.478;10.182;2022-12-18T15:35:57;34.50;;;11.88;;
23743;SDS011;12052;53.478;10.182;2022-12-18T15:38:28;39.45;;;14.93;;
23743;SDS011;12052;53.478;10.182;2022-12-18T15:40:54;36.90;;;13.05;;
23743;SDS011;12052;53.478;10.182;2022-12-18T15:43:21;26.45;;;10.23;;
23743;SDS011;12052;53.478;10.182;2022-12-18T15:46:01;42.13;;;13.38;;
23743;SDS011;12052;53.478;10.182;2022-12-18T15:48:39;57.50;;;20.05;;
23743;SDS011;12052;53.478;10.182;2022-12-18T15:51:11;61.50;;;17.80;;
23743;SDS011;12052;53.478;10.182;2022-12-18T15:53:43;45.08;;;17.35;;
23743;SDS011;12052;53.478;10.182;2022-12-18T15:56:13;29.48;;;12.57;;
23743;SDS011;12052;53.478;10.182;2022-12-18T15:58:58;27.63;;;12.02;;
23743;SDS011;12052;53.478;10.182;2022-12-18T16:01:25;35.45;;;12.30;;
23743;SDS011;12052;53.478;10.182;2022-12-18T16:03:53;39.08;;;13.70;;
23743;SDS011;12052;53.478;10.182;2022-12-18T16:06:19;41.83;;;17.08;;
23743;SDS011;12052;53.478;10.182;2022-12-18T16:08:45;39.22;;;16.27;;
23743;SDS011;12052;53.478;10.182;2022-12-18T16:11:16;38.97;;;13.10;;
23743;SDS011;12052;53.478;10.182;2022-12-18T16:16:51;35.35;;;10.93;;
23743;SDS011;12052;53.478;10.182;2022-12-18T16:19:18;42.17;;;13.90;;
23743;SDS011;12052;53.478;10.182;2022-12-18T16:21:46;42.92;;;14.27;;
23743;SDS011;12052;53.478;10.182;2022-12-18T16:24:13;30.67;;;12.60;;
23743;SDS011;12052;53.478;10.182;2022-12-18T16:26:41;18.13;;;7.97;;
23743;SDS011;12052;53.478;10.182;2022-12-18T16:29:07;47.78;;;16.83;;
23743;SDS011;12052;53.478;10.182;2022-12-18T16:31:33;33.15;;;12.88;;
23743;SDS011;12052;53.478;10.182;2022-12-18T16:36:49;38.53;;;14.20;;
23743;SDS011;12052;53.478;10.182;2022-12-18T16:39:14;35.15;;;15.38;;
23743;SDS011;12052;53.478;10.182;2022-12-18T16:41:41;42.58;;;14.07;;
23743;SDS011;12052;53.478;10.182;2022-12-18T16:44:06;42.90;;;13.25;;
23743;SDS011;12052;53.478;10.182;2022-12-18T16:46:32;23.17;;;9.63;;
23743;SDS011;12052;53.478;10.182;2022-12-18T16:48:58;39.70;;;14.93;;
23743;SDS011;12052;53.478;10.182;2022-12-18T16:51:25;38.53;;;12.70;;
23743;SDS011;12052;53.478;10.182;2022-12-18T16:53:52;36.58;;;11.10;;